Time;durP1;ratioP1;P1;durP2;ratioP2;P2;SDS_P1;SDS_P2;PMS_P1;PMS_P2;Temp;Humidity;BMP_temperature;BMP_pressure;BME280_temperature;BME280_humidity;BME280_pressure;Samples;Min_cycle;Max_cycle;Signal;HPM_P1;HPM_P2
2023/07/21 00:01:43;;;;;;;7.00;4.27;;;20.00;87.70;;;;;;5054181;28;20467;-70
2023/07/21 00:04:10;;;;;;;5.47;4.20;;;20.00;87.90;;;;;;5053743;28;20446;-70
2023/07/21 00:06:44;;;;;;;4.70;3.80;;;20.00;88.40;;;;;;5054218;28;20470;-70
2023/07/21 00:09:15;;;;;;;6.80;3.80;;;19.90;88.40;;;;;;5053981;28;20477;-70
2023/07/21 00:11:42;;;;;;;5.00;3.90;;;19.90;88.80;;;;;;5052946;28;20455;-70
2023/07/21 00:14:11;;;;;;;5.63;3.67;;;19.90;89.20;;;;;;5053941;28;20442;-70
2023/07/21 00:16:38;;;;;;;4.70;3.60;;;20.00;89.30;;;;;;5054099;28;20488;-70
2023/07/21 00:19:06;;;;;;;7.43;3.60;;;20.00;89.30;;;;;;5053970;28;20540;-70
2023/07/21 00:21:39;;;;;;;8.40;3.60;;;20.00;89.30;;;;;;5053275;28;20446;-70
2023/07/21 00:24:11;;;;;;;6.50;3.63;;;20.00;89.30;;;;;;5053616;28;20459;-70
2023/07/21 00:26:38;;;;;;;8.07;3.90;;;20.00;89.40;;;;;;5053631;28;20925;-70
2023/07/21 00:29:06;;;;;;;6.73;3.97;;;19.90;89.40;;;;;;5053395;28;20615;-70
2023/07/21 00:31:33;;;;;;;8.07;4.30;;;19.90;89.80;;;;;;5053003;28;20954;-70
2023/07/21 00:34:04;;;;;;;5.37;3.87;;;19.90;90.00;;;;;;5053849;28;20438;-70
2023/07/21 00:36:31;;;;;;;8.40;3.23;;;19.90;90.20;;;;;;5053509;28;20434;-70
2023/07/21 00:38:58;;;;;;;8.10;3.97;;;19.90;90.20;;;;;;5053689;28;20470;-70
2023/07/21 00:41:27;;;;;;;7.13;3.50;;;19.90;90.30;;;;;;5052959;28;20519;-70
2023/07/21 00:43:54;;;;;;;5.97;3.80;;;19.90;90.40;;;;;;5053207;28;20484;-71
2023/07/21 00:46:27;;;;;;;6.07;4.23;;;19.90;90.40;;;;;;5053631;28;20435;-75
2023/07/21 00:48:54;;;;;;;4.70;3.73;;;19.90;90.50;;;;;;5053572;28;20431;-70
2023/07/21 00:51:23;;;;;;;5.87;3.70;;;19.90;90.60;;;;;;5053241;28;20444;-70
2023/07/21 00:53:52;;;;;;;5.90;3.80;;;19.90;90.60;;;;;;5053512;28;20438;-71
2023/07/21 00:56:19;;;;;;;8.80;3.30;;;20.00;90.70;;;;;;5053287;28;20443;-70
2023/07/21 00:58:49;;;;;;;7.73;3.37;;;19.90;90.80;;;;;;5053101;28;20953;-70
2023/07/21 01:01:24;;;;;;;5.20;3.60;;;19.90;90.90;;;;;;5052794;28;20987;-70
2023/07/21 01:03:52;;;;;;;6.33;3.60;;;19.90;91.00;;;;;;5053408;28;20459;-70
2023/07/21 01:06:19;;;;;;;5.67;3.80;;;19.90;91.00;;;;;;5053464;28;20504;-70
2023/07/21 01:08:47;;;;;;;9.00;3.70;;;19.90;91.10;;;;;;5053664;28;20458;-70
2023/07/21 01:11:14;;;;;;;7.83;4.23;;;19.90;91.10;;;;;;5057029;28;20492;-69
2023/07/21 01:13:42;;;;;;;9.90;4.20;;;19.80;91.00;;;;;;5057399;28;20512;-70
2023/07/21 01:16:12;;;;;;;9.47;4.67;;;19.80;91.20;;;;;;5057335;28;20495;-70
2023/07/21 01:18:41;;;;;;;6.70;4.10;;;19.80;91.30;;;;;;5057437;28;20457;-70
2023/07/21 01:21:10;;;;;;;6.77;3.90;;;19.80;91.20;;;;;;5056555;28;20453;-70
2023/07/21 01:23:45;;;;;;;6.30;4.73;;;19.70;91.20;;;;;;5056933;28;20505;-70
2023/07/21 01:26:20;;;;;;;5.53;4.50;;;19.70;91.30;;;;;;5057502;28;20878;-70
2023/07/21 01:28:47;;;;;;;10.23;3.73;;;19.80;91.30;;;;;;5057177;28;20469;-70
2023/07/21 01:31:17;;;;;;;7.47;3.53;;;19.70;91.20;;;;;;5056831;28;20477;-70
2023/07/21 01:33:45;;;;;;;5.60;4.00;;;19.70;91.20;;;;;;5056717;28;20465;-70
2023/07/21 01:36:13;;;;;;;7.30;3.77;;;19.70;91.20;;;;;;5056668;28;20481;-70
2023/07/21 01:38:42;;;;;;;4.60;3.20;;;19.60;91.40;;;;;;5057016;28;20512;-70
2023/07/21 01:41:12;;;;;;;5.83;4.33;;;19.60;91.60;;;;;;5056321;28;20944;-70
2023/07/21 01:43:40;;;;;;;5.20;3.20;;;19.60;91.70;;;;;;5056226;28;20960;-70
2023/07/21 01:46:10;;;;;;;4.80;3.20;;;19.50;91.90;;;;;;5056802;28;20521;-69
2023/07/21 01:48:37;;;;;;;4.83;3.37;;;19.50;92.00;;;;;;5056848;28;20438;-70
2023/07/21 01:51:06;;;;;;;4.77;4.07;;;19.50;92.10;;;;;;5056446;28;20441;-70
2023/07/21 01:53:40;;;;;;;5.90;4.10;;;19.50;92.10;;;;;;5056673;28;20542;-70
2023/07/21 01:56:13;;;;;;;9.00;4.47;;;19.50;92.00;;;;;;5056716;28;20510;-70
2023/07/21 01:58:43;;;;;;;7.37;3.97;;;19.50;92.10;;;;;;5056649;28;20454;-71
2023/07/21 02:01:15;;;;;;;4.90;3.73;;;19.50;92.20;;;;;;5055858;28;20466;-70
2023/07/21 02:03:43;;;;;;;5.53;3.60;;;19.50;92.20;;;;;;5056262;28;20494;-70
2023/07/21 02:06:16;;;;;;;6.40;4.13;;;19.60;92.30;;;;;;5056455;28;20443;-70
2023/07/21 02:08:48;;;;;;;7.43;3.60;;;19.60;92.40;;;;;;5055891;28;20492;-70
2023/07/21 02:11:15;;;;;;;4.33;3.40;;;19.60;92.40;;;;;;5055295;28;20438;-70
2023/07/21 02:13:44;;;;;;;6.40;3.60;;;19.50;92.50;;;;;;5056277;28;20528;-71
2023/07/21 02:16:11;;;;;;;4.43;3.63;;;19.50;92.50;;;;;;5056346;28;20518;-70
2023/07/21 02:18:40;;;;;;;5.40;3.63;;;19.50;92.50;;;;;;5056332;28;20530;-70
2023/07/21 02:21:07;;;;;;;6.60;3.70;;;19.50;92.50;;;;;;5055574;28;20451;-70
2023/07/21 02:23:36;;;;;;;4.73;4.23;;;19.40;92.40;;;;;;5056022;28;20513;-70
2023/07/21 02:26:03;;;;;;;6.00;4.33;;;19.40;92.50;;;;;;5056134;28;20500;-70
2023/07/21 02:28:30;;;;;;;4.47;3.63;;;19.40;92.50;;;;;;5055719;28;20446;-70
2023/07/21 02:31:03;;;;;;;4.33;3.40;;;19.40;92.40;;;;;;5055128;28;20447;-69
2023/07/21 02:33:30;;;;;;;6.77;4.20;;;19.40;92.50;;;;;;5054384;28;20433;-70
2023/07/21 02:35:58;;;;;;;7.93;4.07;;;19.30;92.60;;;;;;5055762;28;20472;-70
2023/07/21 02:38:25;;;;;;;5.63;4.50;;;19.30;92.70;;;;;;5054441;28;20997;-70
2023/07/21 02:40:52;;;;;;;7.40;4.27;;;19.30;92.70;;;;;;5055818;28;20505;-70
2023/07/21 02:43:19;;;;;;;9.07;4.80;;;19.20;92.80;;;;;;5055392;28;20532;-70
2023/07/21 02:45:50;;;;;;;7.87;5.30;;;19.10;93.10;;;;;;5055404;28;20477;-70
2023/07/21 02:48:19;;;;;;;6.17;4.57;;;18.90;93.70;;;;;;5055045;28;20424;-69
2023/07/21 02:50:49;;;;;;;7.63;4.50;;;18.90;94.10;;;;;;5055686;28;20437;-70
2023/07/21 02:53:16;;;;;;;4.60;4.10;;;18.90;94.00;;;;;;5055328;28;20438;-71
2023/07/21 02:55:44;;;;;;;5.40;3.60;;;19.00;93.90;;;;;;5055622;28;20564;-70
2023/07/21 02:58:13;;;;;;;7.53;4.60;;;19.00;93.80;;;;;;5055737;28;20516;-70
2023/07/21 03:00:45;;;;;;;7.57;3.80;;;19.00;93.50;;;;;;5053348;28;20434;-73
2023/07/21 03:03:14;;;;;;;5.93;3.63;;;19.00;93.50;;;;;;5055426;28;20549;-70
2023/07/21 03:05:44;;;;;;;4.97;3.70;;;19.00;93.30;;;;;;5055578;28;20511;-69
2023/07/21 03:08:11;;;;;;;7.77;3.90;;;19.00;93.20;;;;;;5055250;28;20524;-71
2023/07/21 03:10:38;;;;;;;7.53;4.37;;;19.00;93.00;;;;;;5054978;28;20501;-69
2023/07/21 03:13:05;;;;;;;6.37;3.83;;;18.90;92.90;;;;;;5055050;28;20489;-70
2023/07/21 03:15:37;;;;;;;5.70;3.77;;;18.90;93.00;;;;;;5054767;28;20965;-70
2023/07/21 03:18:05;;;;;;;7.33;4.00;;;18.90;93.00;;;;;;5055129;28;20521;-70
2023/07/21 03:20:32;;;;;;;6.30;3.40;;;18.90;92.90;;;;;;5054824;28;20526;-70
2023/07/21 03:23:00;;;;;;;5.73;4.30;;;18.80;92.90;;;;;;5055006;28;20543;-70
2023/07/21 03:25:28;;;;;;;6.70;4.20;;;18.80;93.30;;;;;;5054567;28;20480;-70
2023/07/21 03:27:55;;;;;;;6.37;4.10;;;18.80;93.40;;;;;;5054946;28;20499;-69
2023/07/21 03:30:22;;;;;;;5.33;3.93;;;18.70;93.50;;;;;;5054508;28;20932;-70
2023/07/21 03:32:50;;;;;;;7.87;3.97;;;18.70;93.60;;;;;;5053626;28;20465;-70
2023/07/21 03:35:18;;;;;;;5.30;4.20;;;18.70;93.60;;;;;;5054850;28;20859;-70
2023/07/21 03:37:45;;;;;;;7.60;4.50;;;18.70;93.60;;;;;;5054055;28;20451;-70
2023/07/21 03:40:14;;;;;;;5.40;4.80;;;18.70;93.70;;;;;;5054424;28;20445;-70
2023/07/21 03:42:41;;;;;;;6.77;4.50;;;18.60;93.60;;;;;;5054269;28;20562;-70
2023/07/21 03:45:08;;;;;;;7.17;4.50;;;18.60;93.70;;;;;;5054237;28;20480;-69
2023/07/21 03:47:36;;;;;;;5.07;3.77;;;18.60;93.80;;;;;;5054096;28;20442;-70
2023/07/21 03:50:04;;;;;;;6.73;4.70;;;18.60;93.80;;;;;;5054597;28;20440;-71
2023/07/21 03:52:31;;;;;;;8.00;4.53;;;18.60;93.90;;;;;;5054649;28;20524;-70
2023/07/21 03:54:58;;;;;;;5.97;4.60;;;18.70;93.50;;;;;;5053789;28;21010;-70
2023/07/21 03:57:26;;;;;;;7.60;4.27;;;18.60;93.40;;;;;;5053899;28;20556;-70
2023/07/21 03:59:53;;;;;;;5.30;4.43;;;18.60;93.50;;;;;;5054280;28;20532;-71
2023/07/21 04:02:26;;;;;;;8.73;3.93;;;18.60;93.50;;;;;;5054324;28;20516;-70
2023/07/21 04:04:53;;;;;;;5.37;4.03;;;18.60;93.50;;;;;;5054464;28;20429;-70
2023/07/21 04:07:21;;;;;;;5.70;3.30;;;18.60;93.10;;;;;;5053914;28;20439;-70
2023/07/21 04:09:48;;;;;;;5.83;4.33;;;18.60;93.20;;;;;;5053441;28;20991;-70
2023/07/21 04:12:20;;;;;;;7.10;3.90;;;18.50;93.20;;;;;;5053671;28;21146;-70
2023/07/21 04:14:48;;;;;;;7.03;3.70;;;18.50;93.80;;;;;;5053726;28;20434;-70
2023/07/21 04:17:20;;;;;;;8.17;4.03;;;18.50;93.50;;;;;;5053713;28;20484;-70
2023/07/21 04:19:47;;;;;;;5.70;4.07;;;18.50;93.50;;;;;;5054050;28;20433;-70
2023/07/21 04:22:14;;;;;;;6.03;4.17;;;18.50;93.60;;;;;;5053282;28;20972;-70
2023/07/21 04:24:41;;;;;;;5.33;3.77;;;18.50;93.70;;;;;;5053821;28;20481;-69
2023/07/21 04:27:09;;;;;;;8.30;4.23;;;18.50;93.80;;;;;;5053783;28;20620;-70
2023/07/21 04:29:36;;;;;;;6.50;4.07;;;18.50;94.00;;;;;;5053377;28;20456;-70
2023/07/21 04:32:05;;;;;;;7.80;3.90;;;18.60;94.00;;;;;;5053510;28;20470;-70
2023/07/21 04:34:32;;;;;;;5.47;3.53;;;18.60;94.00;;;;;;5053399;28;20841;-70
2023/07/21 04:37:00;;;;;;;13.20;4.40;;;18.60;93.90;;;;;;5053765;28;20432;-70
2023/07/21 04:39:27;;;;;;;8.53;4.10;;;18.60;93.90;;;;;;5053714;28;20518;-70
2023/07/21 04:41:54;;;;;;;9.13;4.20;;;18.60;94.00;;;;;;5053289;28;20541;-70
2023/07/21 04:44:21;;;;;;;7.30;4.00;;;18.60;94.10;;;;;;5052551;28;20553;-70
2023/07/21 04:46:49;;;;;;;5.93;4.00;;;18.60;94.10;;;;;;5053447;28;20529;-70
2023/07/21 04:49:17;;;;;;;7.60;3.87;;;18.70;94.20;;;;;;5052883;28;20474;-70
2023/07/21 04:51:49;;;;;;;8.80;3.53;;;18.70;94.40;;;;;;5053639;28;20458;-70
2023/07/21 04:54:21;;;;;;;6.53;4.17;;;18.70;94.50;;;;;;5052400;28;20530;-70
2023/07/21 04:56:53;;;;;;;4.73;3.63;;;18.70;94.50;;;;;;5053293;28;20509;-70
2023/07/21 04:59:20;;;;;;;5.33;3.50;;;18.70;94.40;;;;;;5053022;28;20509;-70
2023/07/21 05:01:52;;;;;;;6.77;4.17;;;18.70;94.60;;;;;;5053440;28;20803;-70
2023/07/21 05:04:20;;;;;;;5.80;4.20;;;18.70;94.40;;;;;;5052540;28;20572;-69
2023/07/21 05:06:49;;;;;;;6.30;4.37;;;18.70;94.40;;;;;;5052715;28;20466;-70
2023/07/21 05:09:21;;;;;;;5.30;4.20;;;18.70;94.40;;;;;;5052651;28;20560;-69
2023/07/21 05:11:48;;;;;;;6.53;4.27;;;18.70;94.10;;;;;;5052322;28;20520;-70
2023/07/21 05:14:18;;;;;;;5.50;4.43;;;18.80;94.50;;;;;;5052731;28;20482;-70
2023/07/21 05:16:49;;;;;;;5.37;3.87;;;18.70;94.60;;;;;;5052790;28;20434;-70
2023/07/21 05:19:16;;;;;;;5.70;4.20;;;18.70;95.30;;;;;;5052854;28;20992;-70
2023/07/21 05:21:45;;;;;;;9.00;4.90;;;18.60;95.30;;;;;;5052825;28;20438;-70
2023/07/21 05:24:12;;;;;;;8.23;5.10;;;18.50;95.20;;;;;;5050751;28;20811;-70
2023/07/21 05:26:39;;;;;;;6.90;4.40;;;18.30;96.00;;;;;;5052154;28;20441;-70
2023/07/21 05:29:09;;;;;;;6.30;4.17;;;18.30;96.60;;;;;;5052352;28;20430;-70
2023/07/21 05:31:36;;;;;;;6.10;4.50;;;18.20;97.00;;;;;;5052540;28;20473;-70
2023/07/21 05:34:07;;;;;;;8.50;5.13;;;18.20;97.80;;;;;;5051789;28;20452;-70
2023/07/21 05:36:39;;;;;;;6.27;5.00;;;18.30;98.40;;;;;;5052392;28;20808;-71
2023/07/21 05:39:08;;;;;;;10.43;4.70;;;18.30;98.80;;;;;;5052127;28;20529;-70
2023/07/21 05:41:35;;;;;;;6.23;4.40;;;18.40;99.00;;;;;;5051151;28;20535;-70
2023/07/21 05:44:02;;;;;;;6.50;5.20;;;18.40;99.00;;;;;;5051794;28;20897;-71
2023/07/21 05:46:29;;;;;;;5.67;4.43;;;18.50;99.00;;;;;;5052102;28;20479;-72
2023/07/21 05:48:56;;;;;;;8.13;5.37;;;18.60;99.00;;;;;;5052386;28;20534;-70
2023/07/21 05:51:23;;;;;;;7.23;4.40;;;18.70;98.90;;;;;;5052314;28;20521;-70
2023/07/21 05:53:50;;;;;;;7.70;5.17;;;18.90;98.30;;;;;;5052075;28;20444;-71
2023/07/21 05:56:20;;;;;;;6.37;4.60;;;18.90;98.30;;;;;;5055345;28;20978;-70
2023/07/21 05:58:47;;;;;;;5.47;4.13;;;19.00;97.70;;;;;;5055889;28;20467;-70
2023/07/21 06:01:14;;;;;;;7.80;4.20;;;19.00;97.60;;;;;;5055225;28;20438;-72
2023/07/21 06:03:41;;;;;;;5.13;3.60;;;19.10;97.60;;;;;;5055724;28;20488;-70
2023/07/21 06:06:13;;;;;;;5.63;3.70;;;19.10;97.40;;;;;;5055927;28;20438;-70
2023/07/21 06:08:43;;;;;;;6.67;4.67;;;19.10;97.80;;;;;;5055421;28;20953;-70
2023/07/21 06:11:10;;;;;;;6.17;4.00;;;19.30;97.20;;;;;;5055874;28;20422;-70
2023/07/21 06:13:39;;;;;;;6.27;4.27;;;19.30;97.50;;;;;;5055725;28;20483;-70
2023/07/21 06:16:08;;;;;;;5.37;4.10;;;19.30;96.90;;;;;;5055612;28;20795;-70
2023/07/21 06:18:41;;;;;;;5.27;3.80;;;19.30;96.90;;;;;;5055275;28;20450;-71
2023/07/21 06:21:11;;;;;;;6.00;4.43;;;19.30;96.90;;;;;;5055077;28;20424;-70
2023/07/21 06:23:40;;;;;;;5.30;3.57;;;19.40;97.10;;;;;;5054970;28;20466;-70
2023/07/21 06:26:10;;;;;;;5.00;3.20;;;19.50;97.40;;;;;;5054697;28;20438;-70
2023/07/21 06:28:39;;;;;;;7.17;4.03;;;19.50;97.00;;;;;;5051870;28;20442;-70
2023/07/21 06:31:06;;;;;;;6.33;3.80;;;19.60;96.90;;;;;;5055424;28;20450;-70
2023/07/21 06:33:34;;;;;;;6.87;3.93;;;19.70;96.70;;;;;;5049468;28;20442;-71
2023/07/21 06:36:02;;;;;;;7.03;3.40;;;19.70;95.70;;;;;;5051188;28;20453;-70
2023/07/21 06:38:29;;;;;;;4.53;3.43;;;19.70;95.30;;;;;;5054644;28;20544;-70
2023/07/21 06:40:56;;;;;;;4.93;3.00;;;19.60;95.90;;;;;;5055094;28;20447;-72
2023/07/21 06:43:24;;;;;;;3.97;2.60;;;19.60;96.10;;;;;;5053401;28;20982;-70
2023/07/21 06:45:53;;;;;;;4.60;3.50;;;19.70;96.60;;;;;;5054589;28;20443;-70
2023/07/21 06:48:20;;;;;;;4.60;3.37;;;19.70;96.50;;;;;;5051223;28;20447;-71
2023/07/21 06:50:49;;;;;;;4.73;3.60;;;19.70;96.80;;;;;;5054418;28;20442;-71
2023/07/21 06:53:18;;;;;;;6.90;3.40;;;19.60;97.00;;;;;;5054763;28;20510;-70
2023/07/21 06:55:49;;;;;;;3.90;2.97;;;19.70;97.00;;;;;;5052161;28;20438;-70
2023/07/21 06:58:17;;;;;;;4.20;3.20;;;19.70;97.00;;;;;;5053603;28;20423;-72
2023/07/21 07:00:45;;;;;;;5.27;3.60;;;19.70;97.30;;;;;;5053336;28;21024;-70
2023/07/21 07:03:13;;;;;;;4.70;3.40;;;19.70;97.20;;;;;;5054394;28;20446;-70
2023/07/21 07:05:45;;;;;;;4.30;3.00;;;19.70;97.10;;;;;;5053936;28;20479;-70
2023/07/21 07:08:12;;;;;;;7.13;3.23;;;19.80;96.90;;;;;;5054079;28;20469;-70
2023/07/21 07:10:39;;;;;;;6.00;3.60;;;19.70;96.60;;;;;;5054160;28;20849;-71
2023/07/21 07:13:06;;;;;;;5.20;3.47;;;19.80;96.50;;;;;;5054296;28;20944;-70
2023/07/21 07:15:38;;;;;;;5.60;3.77;;;19.70;97.00;;;;;;5054444;28;20497;-70
2023/07/21 07:18:06;;;;;;;6.00;3.53;;;19.70;96.80;;;;;;5054515;28;20512;-70
2023/07/21 07:20:34;;;;;;;4.60;2.80;;;19.70;96.80;;;;;;5054178;28;20473;-70
2023/07/21 07:23:02;;;;;;;4.73;3.20;;;19.80;97.30;;;;;;5054059;28;20431;-70
2023/07/21 07:25:29;;;;;;;5.47;4.10;;;19.90;97.70;;;;;;5054191;28;20480;-70
2023/07/21 07:27:57;;;;;;;5.23;3.70;;;19.90;98.00;;;;;;5054339;28;20470;-70
2023/07/21 07:30:26;;;;;;;8.70;4.23;;;20.00;98.30;;;;;;5051483;28;21041;-70
2023/07/21 07:32:53;;;;;;;6.90;3.50;;;20.00;98.50;;;;;;5054024;28;20855;-71
2023/07/21 07:35:21;;;;;;;4.67;3.60;;;20.00;98.40;;;;;;5054103;28;20534;-70
2023/07/21 07:37:49;;;;;;;4.03;3.03;;;20.10;98.30;;;;;;5053872;28;20474;-70
2023/07/21 07:40:19;;;;;;;5.77;5.10;;;20.10;98.40;;;;;;5053512;28;20886;-70
2023/07/21 07:42:51;;;;;;;6.60;4.90;;;20.20;97.80;;;;;;5053565;28;20450;-70
2023/07/21 07:45:18;;;;;;;6.53;4.60;;;20.20;97.30;;;;;;5053854;28;20834;-70
2023/07/21 07:47:46;;;;;;;5.57;4.20;;;20.20;96.90;;;;;;5053414;28;20933;-70
2023/07/21 07:50:15;;;;;;;7.30;4.80;;;20.10;97.00;;;;;;5053355;28;20561;-70
2023/07/21 07:52:45;;;;;;;7.63;4.00;;;20.20;97.10;;;;;;5053190;28;20991;-70
2023/07/21 07:55:15;;;;;;;7.10;3.50;;;20.10;97.00;;;;;;5054011;28;20443;-70
2023/07/21 07:57:42;;;;;;;5.73;4.27;;;20.00;96.70;;;;;;5053673;28;20481;-70
2023/07/21 08:00:14;;;;;;;6.40;4.93;;;19.80;97.10;;;;;;5053505;28;20437;-70
2023/07/21 08:02:41;;;;;;;5.20;3.67;;;19.70;97.70;;;;;;5053614;28;20484;-70
2023/07/21 08:05:09;;;;;;;7.03;4.43;;;19.70;98.40;;;;;;5053315;28;20510;-72
2023/07/21 08:07:37;;;;;;;6.43;4.53;;;19.60;98.90;;;;;;5053253;28;20994;-70
2023/07/21 08:10:04;;;;;;;5.00;4.00;;;19.50;99.30;;;;;;5053076;28;20562;-70
2023/07/21 08:12:36;;;;;;;5.40;3.80;;;19.40;99.10;;;;;;5053328;28;20470;-70
2023/07/21 08:15:03;;;;;;;7.80;4.27;;;19.20;99.90;;;;;;5053422;28;20837;-71
2023/07/21 08:17:37;;;;;;;5.07;3.50;;;19.20;99.90;;;;;;5053143;28;20470;-70
2023/07/21 08:20:05;;;;;;;9.63;3.17;;;19.10;98.90;;;;;;5052749;28;20418;-70
2023/07/21 08:22:32;;;;;;;4.27;3.50;;;19.10;99.30;;;;;;5053046;28;20916;-70
2023/07/21 08:25:01;;;;;;;7.13;4.17;;;19.00;99.70;;;;;;5053248;28;20659;-70
2023/07/21 08:27:28;;;;;;;4.90;3.50;;;19.00;99.70;;;;;;5053006;28;20485;-70
2023/07/21 08:29:57;;;;;;;4.70;3.00;;;19.00;99.40;;;;;;5052587;28;20453;-70
2023/07/21 08:32:24;;;;;;;6.17;3.80;;;19.00;99.50;;;;;;5053110;28;20425;-71
2023/07/21 08:34:51;;;;;;;5.47;3.97;;;19.00;99.90;;;;;;5052812;28;20525;-70
2023/07/21 08:37:18;;;;;;;6.40;3.97;;;19.10;99.90;;;;;;5052788;28;20466;-70
2023/07/21 08:39:47;;;;;;;5.90;3.90;;;19.20;99.90;;;;;;5052866;28;20517;-70
2023/07/21 08:42:15;;;;;;;4.90;2.80;;;19.30;99.90;;;;;;5052956;28;20521;-70
2023/07/21 08:44:43;;;;;;;5.73;3.90;;;19.30;99.90;;;;;;5052870;28;20560;-70
2023/07/21 08:47:14;;;;;;;5.10;3.23;;;19.40;99.90;;;;;;5052519;28;20470;-71
2023/07/21 08:49:41;;;;;;;6.33;3.53;;;19.50;99.90;;;;;;5052618;28;20976;-71
2023/07/21 08:52:08;;;;;;;4.40;3.13;;;19.60;99.90;;;;;;5052239;28;20486;-70
2023/07/21 08:54:35;;;;;;;6.87;3.17;;;19.70;99.90;;;;;;5052803;28;20476;-70
2023/07/21 08:57:07;;;;;;;5.40;3.10;;;19.50;99.20;;;;;;5051987;28;20879;-70
2023/07/21 08:59:36;;;;;;;7.17;3.53;;;19.50;99.70;;;;;;5052137;28;20958;-70
2023/07/21 09:02:08;;;;;;;8.20;3.60;;;19.60;99.90;;;;;;5052673;28;20490;-70
2023/07/21 09:04:36;;;;;;;4.37;2.93;;;19.80;99.90;;;;;;5052366;28;20544;-70
2023/07/21 09:07:04;;;;;;;6.53;3.70;;;19.90;99.90;;;;;;5052444;28;20434;-70
2023/07/21 09:09:33;;;;;;;4.37;2.70;;;20.10;99.90;;;;;;5052430;28;20467;-70
2023/07/21 09:12:01;;;;;;;3.90;2.70;;;20.20;99.90;;;;;;5051841;28;20528;-70
2023/07/21 09:14:36;;;;;;;3.33;2.70;;;20.30;99.90;;;;;;5052643;28;20771;-70
2023/07/21 09:17:05;;;;;;;4.13;3.03;;;20.40;99.80;;;;;;5052710;28;20834;-70
2023/07/21 09:19:37;;;;;;;4.50;3.00;;;20.50;99.50;;;;;;5052601;28;20528;-71
2023/07/21 09:22:09;;;;;;;3.20;2.33;;;20.50;99.70;;;;;;5052408;28;20474;-70
2023/07/21 09:24:37;;;;;;;5.53;2.67;;;20.60;99.90;;;;;;5052218;28;20826;-71
2023/07/21 09:27:12;;;;;;;4.70;2.97;;;20.70;99.90;;;;;;5052713;28;20445;-70
2023/07/21 09:29:39;;;;;;;4.00;2.67;;;20.70;98.30;;;;;;5053534;28;20437;-70
2023/07/21 09:32:12;;;;;;;5.17;3.10;;;20.60;96.20;;;;;;5056115;28;20519;-70
2023/07/21 09:34:55;;;;;;;4.03;1.60;;;20.40;96.10;;;;;;5056523;28;20436;-70
2023/07/21 09:37:24;;;;;;;3.60;2.30;;;20.50;97.20;;;;;;5056298;28;20419;-70
2023/07/21 09:39:57;;;;;;;8.60;2.40;;;20.60;96.30;;;;;;5056327;28;20529;-70
2023/07/21 09:42:24;;;;;;;3.60;2.40;;;20.60;95.20;;;;;;5056488;28;20466;-70
2023/07/21 09:44:52;;;;;;;4.97;2.23;;;20.70;95.40;;;;;;5055993;28;20517;-70
2023/07/21 09:47:20;;;;;;;5.50;2.13;;;20.80;95.10;;;;;;5056224;28;20477;-70
2023/07/21 09:49:55;;;;;;;3.70;2.50;;;20.90;95.10;;;;;;5056239;28;20798;-70
2023/07/21 09:52:23;;;;;;;5.30;2.20;;;20.80;95.70;;;;;;5056092;28;20851;-70
2023/07/21 09:54:57;;;;;;;4.73;2.40;;;20.80;96.00;;;;;;5055780;28;20530;-70
2023/07/21 09:57:24;;;;;;;5.03;2.13;;;20.80;95.30;;;;;;5055746;28;20523;-70
2023/07/21 09:59:55;;;;;;;5.07;3.37;;;20.90;94.30;;;;;;5055836;28;20475;-70
2023/07/21 10:02:23;;;;;;;4.20;2.20;;;20.80;95.20;;;;;;5055964;28;20436;-70
2023/07/21 10:04:50;;;;;;;2.77;1.77;;;20.70;94.90;;;;;;5055711;28;20481;-70
2023/07/21 10:07:20;;;;;;;5.60;2.90;;;20.60;95.60;;;;;;5055423;28;20529;-70
2023/07/21 10:09:49;;;;;;;3.83;2.00;;;20.70;96.30;;;;;;5053507;28;20558;-70
2023/07/21 10:12:18;;;;;;;6.17;2.50;;;20.80;95.90;;;;;;5055767;28;20457;-70
2023/07/21 10:14:46;;;;;;;4.77;2.23;;;20.80;95.50;;;;;;5055212;28;20445;-71
2023/07/21 10:17:25;;;;;;;2.87;1.97;;;20.90;96.20;;;;;;5055618;28;20478;-70
2023/07/21 10:20:07;;;;;;;4.83;2.83;;;21.10;95.70;;;;;;5055647;28;20468;-71
2023/07/21 10:22:36;;;;;;;4.50;2.30;;;21.00;94.10;;;;;;5055674;28;20506;-70
2023/07/21 10:25:04;;;;;;;3.53;2.07;;;21.10;94.20;;;;;;5055386;28;20567;-70
2023/07/21 10:27:31;;;;;;;3.43;2.50;;;21.30;94.80;;;;;;5055108;28;20438;-71
2023/07/21 10:30:20;;;;;;;4.00;2.77;;;21.50;96.40;;;;;;5054890;28;20532;-71
2023/07/21 10:32:47;;;;;;;4.40;2.87;;;21.90;96.00;;;;;;5055418;28;20866;-70
2023/07/21 10:35:36;;;;;;;3.50;2.23;;;22.10;93.70;;;;;;5055362;28;20439;-71
2023/07/21 10:38:21;;;;;;;3.53;2.10;;;22.10;92.10;;;;;;5055452;28;20804;-70
2023/07/21 10:40:53;;;;;;;3.60;1.93;;;22.10;91.90;;;;;;5055177;28;20426;-72
2023/07/21 10:43:20;;;;;;;3.53;1.90;;;22.00;91.50;;;;;;5055302;28;20831;-71
2023/07/21 10:45:54;;;;;;;4.20;2.10;;;22.20;91.20;;;;;;5054556;28;20570;-71
2023/07/21 10:48:25;;;;;;;4.93;2.70;;;22.20;91.30;;;;;;5055119;28;20452;-71
2023/07/21 10:50:58;;;;;;;5.23;2.43;;;22.20;91.40;;;;;;5055042;28;20825;-70
2023/07/21 10:53:27;;;;;;;3.37;1.80;;;22.30;92.00;;;;;;5053649;28;20436;-70
2023/07/21 10:55:55;;;;;;;4.57;2.77;;;22.40;91.00;;;;;;5052396;28;20998;-70
2023/07/21 10:58:22;;;;;;;5.20;1.97;;;22.60;91.20;;;;;;5054960;28;20452;-70
2023/07/21 11:00:50;;;;;;;4.07;1.90;;;22.90;91.80;;;;;;5050394;28;20443;-75
2023/07/21 11:03:17;;;;;;;4.43;2.37;;;23.20;91.90;;;;;;5042997;28;20524;-70
2023/07/21 11:05:44;;;;;;;5.20;2.20;;;23.50;91.40;;;;;;5054249;28;20570;-70
2023/07/21 11:08:13;;;;;;;3.80;2.10;;;23.70;90.90;;;;;;5053886;28;20469;-70
2023/07/21 11:10:41;;;;;;;5.10;3.00;;;23.90;90.50;;;;;;5053520;28;20467;-70
2023/07/21 11:13:09;;;;;;;3.33;2.33;;;24.20;88.90;;;;;;5051436;28;20540;-71
2023/07/21 11:15:36;;;;;;;3.50;2.03;;;24.20;78.00;;;;;;5054436;28;20469;-70
2023/07/21 11:18:04;;;;;;;3.83;2.10;;;24.00;80.60;;;;;;5053495;28;20927;-71
2023/07/21 11:20:31;;;;;;;6.50;2.37;;;23.90;80.10;;;;;;5050558;28;20444;-70
2023/07/21 11:22:59;;;;;;;4.43;2.67;;;23.80;81.80;;;;;;5052014;28;20481;-70
2023/07/21 11:25:26;;;;;;;4.37;2.60;;;23.80;81.00;;;;;;5033899;28;20561;-70
2023/07/21 11:27:54;;;;;;;4.00;2.23;;;23.80;81.30;;;;;;5051350;28;20491;-72
2023/07/21 11:30:22;;;;;;;3.80;2.33;;;23.80;80.60;;;;;;5053872;28;20473;-70
2023/07/21 11:32:49;;;;;;;7.03;2.37;;;23.80;79.80;;;;;;5052285;28;20994;-70
2023/07/21 11:35:16;;;;;;;4.03;2.23;;;23.80;79.70;;;;;;5053655;28;20541;-70
2023/07/21 11:37:45;;;;;;;4.20;3.10;;;24.00;81.30;;;;;;5050016;28;20434;-71
2023/07/21 11:40:15;;;;;;;4.37;2.63;;;24.10;80.70;;;;;;5054071;28;20520;-71
2023/07/21 11:42:46;;;;;;;5.20;2.93;;;24.10;79.60;;;;;;5053855;28;20492;-70
2023/07/21 11:45:39;;;;;;;6.63;2.80;;;24.20;81.40;;;;;;5053245;28;20469;-70
2023/07/21 11:48:13;;;;;;;3.87;2.40;;;24.40;80.90;;;;;;5052343;28;20846;-70
2023/07/21 11:50:42;;;;;;;4.30;1.90;;;24.60;79.70;;;;;;5053343;28;20834;-71
2023/07/21 11:53:10;;;;;;;4.67;2.93;;;24.70;80.00;;;;;;5050969;28;20935;-73
2023/07/21 11:55:37;;;;;;;6.30;2.67;;;24.80;77.20;;;;;;5052395;28;20451;-70
2023/07/21 11:58:06;;;;;;;6.73;2.67;;;24.90;77.90;;;;;;5052502;28;20437;-71
2023/07/21 12:00:34;;;;;;;3.97;3.23;;;25.10;76.30;;;;;;5052851;28;20477;-70
2023/07/21 12:03:02;;;;;;;6.73;2.50;;;25.30;76.50;;;;;;5051547;28;20939;-71
2023/07/21 12:05:29;;;;;;;3.50;2.17;;;25.50;71.40;;;;;;5053514;28;20515;-70
2023/07/21 12:07:56;;;;;;;3.80;1.90;;;25.50;67.20;;;;;;5054152;28;20865;-70
2023/07/21 12:10:23;;;;;;;6.53;2.67;;;25.60;70.10;;;;;;5053560;28;21050;-70
2023/07/21 12:12:52;;;;;;;3.40;2.10;;;25.60;68.30;;;;;;5053433;28;20936;-71
2023/07/21 12:15:21;;;;;;;3.77;2.37;;;25.70;66.70;;;;;;5053973;28;20441;-71
2023/07/21 12:17:53;;;;;;;4.73;2.80;;;25.80;65.80;;;;;;5053880;28;20453;-71
2023/07/21 12:20:22;;;;;;;5.10;2.57;;;25.90;66.20;;;;;;5054036;28;20517;-70
2023/07/21 12:22:49;;;;;;;3.63;2.40;;;25.90;66.30;;;;;;5053687;28;20563;-70
2023/07/21 12:25:16;;;;;;;5.47;2.50;;;26.00;66.60;;;;;;5053850;28;20861;-71
2023/07/21 12:27:45;;;;;;;4.27;2.63;;;26.10;63.40;;;;;;5053782;28;20541;-71
2023/07/21 12:30:12;;;;;;;4.70;2.40;;;26.20;65.30;;;;;;5053649;28;20542;-71
2023/07/21 12:32:39;;;;;;;4.73;2.40;;;26.30;63.50;;;;;;5053396;28;20438;-71
2023/07/21 12:35:07;;;;;;;4.90;2.10;;;26.40;61.10;;;;;;5053364;28;20520;-70
2023/07/21 12:37:39;;;;;;;3.63;2.43;;;26.50;60.50;;;;;;5053395;28;21002;-70
2023/07/21 12:40:11;;;;;;;4.13;2.07;;;26.30;60.00;;;;;;5053385;28;20436;-70
2023/07/21 12:42:39;;;;;;;4.23;2.10;;;26.20;60.10;;;;;;5053636;28;20433;-70
2023/07/21 12:45:09;;;;;;;5.90;3.10;;;26.10;61.60;;;;;;5052350;28;20844;-70
2023/07/21 12:47:37;;;;;;;2.90;1.77;;;26.20;61.90;;;;;;5053492;28;20425;-76
2023/07/21 12:50:05;;;;;;;3.60;2.07;;;26.20;61.60;;;;;;5053180;28;20965;-71
2023/07/21 12:52:32;;;;;;;3.50;2.20;;;26.30;59.50;;;;;;5053390;28;20542;-70
2023/07/21 12:55:01;;;;;;;4.17;2.30;;;26.30;57.40;;;;;;5053449;28;20484;-70